createdAt,value
2023-05-22T00:15:41.292Z,101227.94
2023-05-22T00:18:13.958Z,101229.22
2023-05-22T00:20:53.413Z,101233.25
2023-05-22T00:23:34.983Z,101226.13
2023-05-22T00:26:07.510Z,101230.13
2023-05-22T00:28:40.056Z,101218.91
2023-05-22T00:31:12.731Z,101216.63
2023-05-22T00:33:54.468Z,101218.16
2023-05-22T00:37:29.487Z,101221.47
2023-05-22T00:40:02.133Z,101217.09
2023-05-22T00:42:44.824Z,101209.94
2023-05-22T00:45:20.514Z,101218.38
2023-05-22T00:48:01.294Z,101224.00
2023-05-22T00:50:39.925Z,101225.22
2023-05-22T00:53:17.280Z,101224.94
2023-05-22T00:55:59.750Z,101219.34
2023-05-22T00:58:32.745Z,101215.00
2023-05-22T01:01:15.565Z,101215.00
2023-05-22T01:03:48.261Z,101214.72
2023-05-22T01:06:32.283Z,101220.31
2023-05-22T01:09:16.824Z,101218.78
2023-05-22T01:12:06.057Z,101218.78
2023-05-22T01:15:17.537Z,101206.00
2023-05-22T01:18:11.258Z,101210.06
2023-05-22T01:20:52.837Z,101206.50
2023-05-22T01:23:49.777Z,101204.16
2023-05-22T01:26:46.954Z,101205.44
2023-05-22T01:29:40.480Z,101211.06
2023-05-22T01:32:25.181Z,101203.91
2023-05-22T01:35:01.538Z,101202.34
2023-05-22T01:37:41.462Z,101202.34
2023-05-22T01:40:23.864Z,101201.59
2023-05-22T01:43:05.361Z,101210.50
2023-05-22T01:45:53.087Z,101204.88
2023-05-22T01:48:43.461Z,101209.72
2023-05-22T01:51:49.419Z,101203.34
2023-05-22T01:54:50.935Z,101207.41
2023-05-22T01:57:46.439Z,101199.47
2023-05-22T02:00:22.091Z,101208.66
2023-05-22T02:03:06.549Z,101200.72
2023-05-22T02:05:40.035Z,101208.38
2023-05-22T02:08:26.518Z,101202.00
2023-05-22T02:11:03.710Z,101205.28
2023-05-22T02:13:47.378Z,101199.69
2023-05-22T02:16:23.904Z,101205.28
2023-05-22T02:19:08.485Z,101198.91
2023-05-22T02:21:41.050Z,101202.97
2023-05-22T02:24:13.641Z,101196.59
2023-05-22T02:26:47.766Z,101190.97
2023-05-22T02:29:20.532Z,101199.88
2023-05-22T02:31:54.880Z,101187.13
2023-05-22T02:34:38.021Z,101189.94
2023-05-22T02:37:15.842Z,101192.75
2023-05-22T02:39:48.397Z,101193.22
2023-05-22T02:42:27.061Z,101184.78
2023-05-22T02:44:59.522Z,101188.09
2023-05-22T02:47:34.271Z,101181.72
2023-05-22T02:50:13.318Z,101180.19
2023-05-22T02:52:54.931Z,101181.72
2023-05-22T02:55:30.542Z,101171.75
2023-05-22T02:58:03.496Z,101173.78
2023-05-22T03:00:42.213Z,101172.25
2023-05-22T03:03:26.973Z,101177.09
2023-05-22T03:06:10.423Z,101174.28
2023-05-22T03:08:55.207Z,101169.91
2023-05-22T03:11:33.214Z,101171.94
2023-05-22T03:14:05.729Z,101167.63
2023-05-22T03:16:38.263Z,101171.66
2023-05-22T03:19:23.159Z,101170.91
2023-05-22T03:22:05.223Z,101169.34
2023-05-22T03:27:24.287Z,101170.34
2023-05-22T03:29:56.961Z,101159.88
2023-05-22T03:32:38.601Z,101167.53
2023-05-22T03:35:19.342Z,101163.16
2023-05-22T03:37:51.980Z,101170.81
2023-05-22T03:40:33.333Z,101170.03
2023-05-22T03:43:05.973Z,101167.25
2023-05-22T03:45:47.795Z,101162.91
2023-05-22T03:48:34.192Z,101164.16
2023-05-22T03:51:20.351Z,101169.75
2023-05-22T03:53:53.273Z,101162.63
2023-05-22T03:56:41.025Z,101162.63
2023-05-22T03:59:16.868Z,101162.34
2023-05-22T04:01:49.388Z,101160.28
2023-05-22T04:04:22.148Z,101162.34
2023-05-22T04:06:58.060Z,101163.59
2023-05-22T04:09:31.913Z,101163.59
2023-05-22T04:12:15.473Z,101160.00
2023-05-22T04:14:47.995Z,101164.84
2023-05-22T04:17:23.694Z,101162.06
2023-05-22T04:20:02.331Z,101167.66
2023-05-22T04:22:34.847Z,101168.91
2023-05-22T04:25:13.389Z,101168.91
2023-05-22T04:27:48.196Z,101170.19
2023-05-22T04:30:22.067Z,101175.03
2023-05-22T04:32:54.689Z,101182.66
2023-05-22T04:35:29.520Z,101184.69
2023-05-22T04:38:30.545Z,101186.72
2023-05-22T04:41:03.462Z,101189.53
2023-05-22T04:43:36.504Z,101187.97
2023-05-22T04:46:09.086Z,101185.97
2023-05-22T04:48:47.546Z,101185.16
2023-05-22T04:51:20.250Z,101190.78
2023-05-22T04:53:58.404Z,101186.44
2023-05-22T04:56:36.959Z,101184.88
2023-05-22T04:59:10.320Z,101184.88
2023-05-22T05:04:33.531Z,101198.13
2023-05-22T05:09:37.269Z,101207.03
2023-05-22T05:12:09.814Z,101211.88
2023-05-22T05:14:51.082Z,101218.25
2023-05-22T05:17:35.615Z,101215.44
2023-05-22T05:20:27.802Z,101225.13
2023-05-22T05:23:03.161Z,101221.06
2023-05-22T05:25:38.821Z,101215.19
2023-05-22T05:28:20.552Z,101217.19
2023-05-22T05:31:07.837Z,101210.81
2023-05-22T05:33:50.467Z,101211.59
2023-05-22T05:36:29.984Z,101207.25
2023-05-22T05:41:51.716Z,101216.44
2023-05-22T05:44:29.606Z,101210.81
2023-05-22T05:47:13.909Z,101210.81
2023-05-22T05:49:58.556Z,101204.44
2023-05-22T05:52:33.597Z,101206.47
2023-05-22T05:55:06.307Z,101216.44
2023-05-22T05:57:40.950Z,101221.28
2023-05-22T06:00:42.534Z,101226.13
2023-05-22T06:03:30.259Z,101226.13
2023-05-22T06:06:12.825Z,101231.72
2023-05-22T06:08:45.742Z,101230.16
2023-05-22T06:11:30.682Z,101226.59
2023-05-22T06:14:15.846Z,101229.41
2023-05-22T06:16:48.792Z,101223.78
2023-05-22T06:19:27.464Z,101225.81
2023-05-22T06:22:00.076Z,101217.41
2023-05-22T06:24:32.680Z,101228.63
2023-05-22T06:27:05.695Z,101230.16
2023-05-22T06:29:38.207Z,101224.56
2023-05-22T06:32:10.790Z,101235.00
2023-05-22T06:34:55.104Z,101232.22
2023-05-22T06:37:43.161Z,101242.16
2023-05-22T06:40:28.198Z,101236.53
2023-05-22T06:43:03.767Z,101237.34
2023-05-22T06:45:37.781Z,101244.47
2023-05-22T06:48:11.989Z,101259.28
2023-05-22T06:50:53.473Z,101258.50
2023-05-22T06:53:26.056Z,101258.50
2023-05-22T06:55:59.615Z,101251.66
2023-05-22T06:58:46.477Z,101261.59
2023-05-22T07:01:19.275Z,101260.06
2023-05-22T07:04:08.432Z,101265.16
2023-05-22T07:06:46.314Z,101258.03
2023-05-22T07:09:46.397Z,101268.25
2023-05-22T07:15:28.144Z,101280.25
2023-05-22T07:18:03.291Z,101276.19
2023-05-22T07:20:39.031Z,101282.56
2023-05-22T07:23:19.593Z,101282.56
2023-05-22T07:26:13.443Z,101286.16
2023-05-22T07:28:57.603Z,101284.63
2023-05-22T07:31:49.424Z,101282.56
2023-05-22T07:34:54.815Z,101286.94
2023-05-22T07:41:13.752Z,101300.47
2023-05-22T07:44:05.119Z,101302.03
2023-05-22T07:46:44.133Z,101300.00
2023-05-22T07:49:32.572Z,101295.91
2023-05-22T07:52:05.251Z,101298.25
2023-05-22T07:55:07.897Z,101298.25
2023-05-22T07:58:25.867Z,101301.34
2023-05-22T08:00:56.517Z,101312.56
2023-05-22T08:03:39.412Z,101302.91
2023-05-22T08:06:18.294Z,101298.53
2023-05-22T08:08:53.116Z,101302.91
2023-05-22T08:11:36.982Z,101296.00
2023-05-22T08:14:21.694Z,101300.09
2023-05-22T08:17:03.656Z,101304.44
2023-05-22T08:19:36.779Z,101304.44
2023-05-22T08:22:18.300Z,101306.00
2023-05-22T08:25:03.073Z,101299.88
2023-05-22T08:27:55.353Z,101307.53
2023-05-22T08:30:37.445Z,101299.13
2023-05-22T08:33:27.211Z,101297.84
2023-05-22T08:36:20.370Z,101297.84
2023-05-22T08:39:07.348Z,101300.16
2023-05-22T08:42:25.111Z,101300.94
2023-05-22T08:45:15.796Z,101298.41
2023-05-22T08:47:55.528Z,101299.22
2023-05-22T08:50:28.204Z,101299.97
2023-05-22T08:53:13.489Z,101291.84
2023-05-22T08:56:00.321Z,101293.38
2023-05-22T08:58:35.650Z,101294.94
2023-05-22T09:01:08.982Z,101290.09
2023-05-22T09:04:02.223Z,101291.63
2023-05-22T09:06:40.998Z,101293.97
2023-05-22T09:09:19.700Z,101300.34
2023-05-22T09:11:54.986Z,101303.94
2023-05-22T09:14:40.917Z,101289.41
2023-05-22T09:17:17.438Z,101292.97
2023-05-22T09:19:50.045Z,101304.19
2023-05-22T09:22:24.283Z,101294.53
2023-05-22T09:25:08.932Z,101294.06
2023-05-22T09:27:46.083Z,101296.06
2023-05-22T09:30:21.840Z,101294.06
2023-05-22T09:33:13.093Z,101298.41
2023-05-22T09:35:55.176Z,101293.56
2023-05-22T09:38:31.374Z,101292.31
2023-05-22T09:44:33.666Z,101290.25
2023-05-22T09:47:06.773Z,101287.47
2023-05-22T09:50:25.815Z,101285.41
2023-05-22T09:53:10.900Z,101275.75
2023-05-22T09:55:53.475Z,101291.31
2023-05-22T09:58:46.848Z,101291.59
2023-05-22T10:01:25.785Z,101281.13
2023-05-22T10:10:54.226Z,101279.41
2023-05-22T10:31:33.269Z,101279.00
2023-05-22T10:40:38.260Z,101273.72
2023-05-22T10:43:26.799Z,101270.94
2023-05-22T10:46:21.701Z,101270.44
2023-05-22T10:49:06.954Z,101273.53
2023-05-22T10:55:08.669Z,101262.31
2023-05-22T11:00:34.074Z,101266.97
2023-05-22T11:03:17.057Z,101269.28
2023-05-22T11:06:37.679Z,101258.81
2023-05-22T11:12:44.077Z,101259.38
2023-05-22T11:15:19.177Z,101260.94
2023-05-22T11:17:52.929Z,101260.94
2023-05-22T11:20:26.788Z,101251.25
2023-05-22T11:26:29.816Z,101248.22
2023-05-22T11:29:14.898Z,101246.47
2023-05-22T11:35:29.230Z,101257.78
2023-05-22T11:38:10.877Z,101250.91
2023-05-22T11:40:46.611Z,101245.56
2023-05-22T11:43:36.688Z,101247.09
2023-05-22T11:46:11.167Z,101243.78
2023-05-22T11:51:42.044Z,101248.44
2023-05-22T11:54:18.039Z,101238.25
2023-05-22T11:57:12.935Z,101244.91
2023-05-22T11:59:47.602Z,101243.66
2023-05-22T12:02:57.303Z,101238.31
2023-05-22T12:05:50.450Z,101238.09
2023-05-22T12:08:25.380Z,101235.56
2023-05-22T12:10:58.129Z,101233.81
2023-05-22T12:13:42.756Z,101234.09
2023-05-22T12:16:21.722Z,101232.81
2023-05-22T12:21:53.117Z,101231.06
2023-05-22T12:24:26.017Z,101223.69
2023-05-22T12:27:16.888Z,101227.53
2023-05-22T12:29:49.472Z,101220.16
2023-05-22T12:32:36.054Z,101226.03
2023-05-22T12:35:28.923Z,101224.78
2023-05-22T12:38:13.515Z,101227.09
2023-05-22T12:41:26.515Z,101226.59
2023-05-22T12:44:10.696Z,101226.88
2023-05-22T12:47:10.474Z,101228.41
2023-05-22T12:50:14.053Z,101225.59
2023-05-22T12:52:46.735Z,101219.47
2023-05-22T12:55:41.208Z,101219.00
2023-05-22T12:58:21.980Z,101220.03
2023-05-22T13:04:19.574Z,101212.66
2023-05-22T13:07:04.236Z,101214.22
2023-05-22T13:09:36.737Z,101218.09
2023-05-22T13:12:11.355Z,101207.59
2023-05-22T13:15:16.160Z,101211.94
2023-05-22T13:20:37.341Z,101213.00
2023-05-22T13:23:09.937Z,101213.78
2023-05-22T13:25:51.423Z,101211.25
2023-05-22T13:28:39.273Z,101214.34
2023-05-22T13:31:27.164Z,101213.06
2023-05-22T13:36:56.430Z,101209.53
2023-05-22T13:39:29.031Z,101211.06
2023-05-22T13:42:01.729Z,101211.81
2023-05-22T13:44:49.594Z,101211.34
2023-05-22T13:47:23.221Z,101204.44
2023-05-22T13:49:59.049Z,101199.06
2023-05-22T13:52:31.611Z,101210.59
2023-05-22T13:55:16.620Z,101210.59
2023-05-22T13:57:49.167Z,101212.16
2023-05-22T14:00:21.745Z,101216.50
2023-05-22T14:02:57.263Z,101218.06
2023-05-22T14:05:35.419Z,101219.59
2023-05-22T14:08:10.976Z,101230.84
2023-05-22T14:10:49.114Z,101225.97
2023-05-22T14:13:22.867Z,101231.13
2023-05-22T14:15:55.429Z,101227.03
2023-05-22T14:18:28.093Z,101227.31
2023-05-22T14:21:05.329Z,101217.59
2023-05-22T14:23:38.965Z,101221.94
2023-05-22T14:26:26.924Z,101224.00
2023-05-22T14:29:21.378Z,101219.13
2023-05-22T14:32:08.329Z,101210.97
2023-05-22T14:34:46.936Z,101222.75
2023-05-22T14:38:10.510Z,101221.78
2023-05-22T14:40:12.821Z,101223.78
2023-05-22T14:42:45.798Z,101228.94
2023-05-22T14:56:36.053Z,101228.94
2023-05-22T14:59:14.368Z,101227.69
2023-05-22T15:01:58.189Z,101226.38
2023-05-22T15:04:31.242Z,101230.50
2023-05-22T15:07:06.636Z,101241.75
2023-05-22T15:09:56.565Z,101236.13
2023-05-22T15:12:32.606Z,101237.66
2023-05-22T15:15:10.954Z,101242.78
2023-05-22T15:17:43.874Z,101239.19
2023-05-22T15:20:34.960Z,101233.81
2023-05-22T15:23:07.618Z,101235.88
2023-05-22T15:25:44.937Z,101238.19
2023-05-22T15:28:19.570Z,101241.78
2023-05-22T15:33:39.052Z,101239.72
2023-05-22T15:36:14.396Z,101238.97
2023-05-22T15:38:46.880Z,101245.34
2023-05-22T15:41:21.648Z,101249.44
2023-05-22T15:43:54.168Z,101241.00
2023-05-22T15:46:26.721Z,101243.81
2023-05-22T15:48:59.456Z,101251.78
2023-05-22T15:51:43.882Z,101245.34
2023-05-22T15:54:16.600Z,101255.34
2023-05-22T15:56:54.972Z,101265.31
2023-05-22T15:59:27.485Z,101272.22
2023-05-22T16:02:01.054Z,101259.69
2023-05-22T16:04:33.593Z,101255.34
2023-05-22T16:07:14.919Z,101256.13
2023-05-22T16:09:51.601Z,101256.88
2023-05-22T16:12:33.288Z,101251.25
2023-05-22T16:15:21.314Z,101252.03
2023-05-22T16:17:56.401Z,101258.94
2023-05-22T16:20:41.920Z,101255.34
2023-05-22T16:23:24.797Z,101252.53
2023-05-22T16:25:57.546Z,101258.16
2023-05-22T16:28:38.139Z,101257.41
2023-05-22T16:31:22.838Z,101256.59
2023-05-22T16:34:15.435Z,101267.84
2023-05-22T16:39:59.416Z,101256.59
2023-05-22T16:42:32.094Z,101254.31
2023-05-22T16:45:06.002Z,101256.84
2023-05-22T16:47:38.664Z,101267.34
2023-05-22T16:50:17.933Z,101268.88
2023-05-22T16:52:50.657Z,101263.72
2023-05-22T16:55:27.348Z,101267.34
2023-05-22T16:58:06.005Z,101272.97
2023-05-22T17:03:45.962Z,101268.59
2023-05-22T17:06:20.953Z,101257.34
2023-05-22T17:12:04.983Z,101265.78
2023-05-22T17:14:37.648Z,101266.53
2023-05-22T17:17:10.409Z,101272.97
2023-05-22T17:20:55.290Z,101277.03
2023-05-22T17:23:39.279Z,101279.56
2023-05-22T17:26:14.251Z,101285.19
2023-05-22T17:28:50.498Z,101296.47
2023-05-22T17:31:26.406Z,101300.56
2023-05-22T17:34:05.215Z,101300.56
2023-05-22T17:36:37.838Z,101300.56
2023-05-22T17:39:28.780Z,101307.44
2023-05-22T17:42:01.471Z,101317.44
2023-05-22T17:44:33.991Z,101307.44
2023-05-22T17:47:56.997Z,101304.63
2023-05-22T17:50:35.082Z,101311.81
2023-05-22T17:53:21.057Z,101310.25
2023-05-22T17:55:56.216Z,101315.88
2023-05-22T17:58:32.801Z,101310.25
2023-05-22T18:01:11.414Z,101320.75
2023-05-22T18:03:45.318Z,101317.16
2023-05-22T18:06:45.848Z,101318.41
2023-05-22T18:10:08.814Z,101317.66
2023-05-22T18:12:41.374Z,101325.31
2023-05-22T18:15:14.175Z,101328.13
2023-05-22T18:17:49.710Z,101328.13
2023-05-22T18:20:27.732Z,101330.19
2023-05-22T18:23:00.705Z,101336.31
2023-05-22T18:25:33.333Z,101347.56
2023-05-22T18:28:06.078Z,101348.81
2023-05-22T18:30:38.850Z,101353.66
2023-05-22T18:33:22.799Z,101348.03
2023-05-22T18:36:06.478Z,101352.91
2023-05-22T18:38:42.212Z,101354.94
2023-05-22T18:41:14.916Z,101347.00
2023-05-22T18:43:53.875Z,101358.25
2023-05-22T18:46:31.203Z,101351.84
2023-05-22T18:49:07.385Z,101352.63
2023-05-22T18:54:54.500Z,101352.34
2023-05-22T18:58:41.710Z,101353.63
2023-05-22T19:04:19.501Z,101357.69
2023-05-22T19:06:59.220Z,101367.41
2023-05-22T19:09:31.815Z,101367.41
2023-05-22T19:12:07.590Z,101375.56
2023-05-22T19:14:40.139Z,101376.34
2023-05-22T19:17:18.882Z,101374.78
2023-05-22T19:19:54.633Z,101385.25
2023-05-22T19:22:27.200Z,101378.09
2023-05-22T19:25:05.386Z,101387.78
2023-05-22T19:27:51.404Z,101386.25
2023-05-22T19:30:33.218Z,101395.47
2023-05-22T19:33:08.557Z,101395.94
2023-05-22T19:35:41.609Z,101402.38
2023-05-22T19:38:19.033Z,101407.19
2023-05-22T19:41:00.715Z,101403.63
2023-05-22T19:43:40.855Z,101408.47
2023-05-22T19:46:13.542Z,101412.53
2023-05-22T19:48:51.930Z,101411.78
2023-05-22T19:51:31.174Z,101419.44
2023-05-22T20:01:23.152Z,101441.94
2023-05-22T20:04:43.942Z,101436.81
2023-05-22T20:07:25.427Z,101444.47
2023-05-22T20:10:06.825Z,101444.47
2023-05-22T20:12:39.702Z,101441.38
2023-05-22T20:15:25.539Z,101438.56
2023-05-22T20:18:08.619Z,101445.47
2023-05-22T20:20:44.398Z,101447.50
2023-05-22T20:23:37.719Z,101449.53
2023-05-22T20:26:19.593Z,101452.84
2023-05-22T20:30:10.023Z,101463.31
2023-05-22T20:32:45.727Z,101468.94
2023-05-22T20:35:29.350Z,101466.63
2023-05-22T20:38:22.646Z,101474.28
2023-05-22T20:41:10.088Z,101488.34
2023-05-22T20:43:54.459Z,101482.44
2023-05-22T20:46:30.557Z,101489.34
2023-05-22T20:49:04.960Z,101482.94
2023-05-22T20:51:51.107Z,101493.41
2023-05-22T20:55:12.408Z,101489.06
2023-05-22T20:57:45.092Z,101500.28
2023-05-22T21:00:20.526Z,101507.16
2023-05-22T21:03:05.315Z,101512.78
2023-05-22T21:05:38.006Z,101509.22
2023-05-22T21:08:33.129Z,101511.25
2023-05-22T21:11:04.325Z,101515.31
2023-05-22T21:13:40.137Z,101520.16
2023-05-22T21:16:19.240Z,101514.53
2023-05-22T21:19:16.641Z,101519.38
2023-05-22T21:22:35.538Z,101524.22
2023-05-22T21:25:14.060Z,101526.75
2023-05-22T21:27:48.497Z,101521.63
2023-05-22T21:30:27.174Z,101516.47
2023-05-22T21:33:11.127Z,101524.16
2023-05-22T21:35:53.397Z,101525.41
2023-05-22T21:38:41.486Z,101532.28
2023-05-22T21:41:30.410Z,101523.09
2023-05-22T21:44:10.035Z,101520.75
2023-05-22T21:46:51.750Z,101525.63
2023-05-22T21:49:28.732Z,101535.31
2023-05-22T21:52:01.428Z,101540.16
2023-05-22T21:54:42.181Z,101556.72
2023-05-22T22:00:01.174Z,101572.06
2023-05-22T22:02:45.982Z,101573.34
2023-05-22T22:05:30.121Z,101568.19
2023-05-22T22:08:05.025Z,101568.66
2023-05-22T22:10:37.738Z,101575.56
2023-05-22T22:13:12.388Z,101582.44
2023-05-22T22:15:44.891Z,101584.94
2023-05-22T22:18:32.516Z,101594.66
2023-05-22T22:21:07.947Z,101597.94
2023-05-22T22:23:49.509Z,101595.63
2023-05-22T22:26:44.328Z,101598.13
2023-05-22T22:29:26.189Z,101596.59
2023-05-22T22:32:02.960Z,101589.44
2023-05-22T22:34:48.702Z,101590.69
2023-05-22T22:37:33.444Z,101597.59
2023-05-22T22:40:12.530Z,101598.81
2023-05-22T22:42:45.289Z,101588.84
2023-05-22T22:45:26.915Z,101594.47
2023-05-22T22:48:06.015Z,101585.75
2023-05-22T22:51:04.917Z,101596.19
2023-05-22T22:53:37.723Z,101596.72
2023-05-22T22:56:10.625Z,101596.72
2023-05-22T22:58:43.285Z,101597.94
2023-05-22T23:01:15.902Z,101592.34
2023-05-22T23:03:48.543Z,101606.38
2023-05-22T23:06:21.186Z,101606.09
2023-05-22T23:08:55.445Z,101595.66
2023-05-22T23:11:46.053Z,101593.31
2023-05-22T23:14:30.845Z,101596.13
2023-05-22T23:17:04.148Z,101594.56
2023-05-22T23:19:36.762Z,101603.00
2023-05-22T23:22:15.613Z,101597.38
2023-05-22T23:24:51.079Z,101601.44
2023-05-22T23:27:37.416Z,101601.94
2023-05-22T23:30:18.992Z,101608.06
2023-05-22T23:33:09.039Z,101608.06
2023-05-22T23:35:57.808Z,101604.94
2023-05-22T23:38:56.124Z,101606.19
2023-05-22T23:41:31.699Z,101615.88
2023-05-22T23:44:04.639Z,101616.38
2023-05-22T23:46:39.818Z,101615.59
2023-05-22T23:49:23.806Z,101603.59
2023-05-22T23:51:58.870Z,101605.59
2023-05-22T23:54:49.839Z,101605.31
2023-05-22T23:57:34.781Z,101603.00
